sensor_id;sensor_type;location;lat;lon;timestamp;temperature;humidity
17172;DHT22;8701;50.150;8.756;2023-02-22T00:02:36;7.60;99.90
17172;DHT22;8701;50.150;8.756;2023-02-22T00:06:38;7.60;99.90
17172;DHT22;8701;50.150;8.756;2023-02-22T00:10:40;7.50;99.90
17172;DHT22;8701;50.150;8.756;2023-02-22T00:14:44;7.50;99.90
17172;DHT22;8701;50.150;8.756;2023-02-22T00:18:46;7.50;99.90
17172;DHT22;8701;50.150;8.756;2023-02-22T00:22:49;7.40;99.90
17172;DHT22;8701;50.150;8.756;2023-02-22T00:26:54;7.40;99.90
17172;DHT22;8701;50.150;8.756;2023-02-22T00:30:57;7.40;99.90
17172;DHT22;8701;50.150;8.756;2023-02-22T00:35:00;7.40;99.90
17172;DHT22;8701;50.150;8.756;2023-02-22T00:39:05;7.30;99.90
17172;DHT22;8701;50.150;8.756;2023-02-22T00:43:09;7.20;99.90
17172;DHT22;8701;50.150;8.756;2023-02-22T00:47:13;7.20;99.90
17172;DHT22;8701;50.150;8.756;2023-02-22T00:51:15;7.20;99.90
17172;DHT22;8701;50.150;8.756;2023-02-22T00:55:20;7.20;99.90
17172;DHT22;8701;50.150;8.756;2023-02-22T00:59:23;7.20;99.90
17172;DHT22;8701;50.150;8.756;2023-02-22T01:03:27;7.20;99.90
17172;DHT22;8701;50.150;8.756;2023-02-22T01:07:31;7.10;99.90
17172;DHT22;8701;50.150;8.756;2023-02-22T01:11:33;7.00;99.90
17172;DHT22;8701;50.150;8.756;2023-02-22T01:15:36;7.00;99.90
17172;DHT22;8701;50.150;8.756;2023-02-22T01:19:40;6.90;99.90
17172;DHT22;8701;50.150;8.756;2023-02-22T01:23:43;6.80;99.90
17172;DHT22;8701;50.150;8.756;2023-02-22T01:27:46;6.80;99.90
17172;DHT22;8701;50.150;8.756;2023-02-22T01:31:51;6.70;99.90
17172;DHT22;8701;50.150;8.756;2023-02-22T01:35:56;6.80;99.90
17172;DHT22;8701;50.150;8.756;2023-02-22T01:39:59;6.70;99.90
17172;DHT22;8701;50.150;8.756;2023-02-22T01:44:17;6.60;99.90
17172;DHT22;8701;50.150;8.756;2023-02-22T01:48:31;6.60;99.90
17172;DHT22;8701;50.150;8.756;2023-02-22T01:52:36;6.60;99.90
17172;DHT22;8701;50.150;8.756;2023-02-22T01:56:41;6.50;99.90
17172;DHT22;8701;50.150;8.756;2023-02-22T02:00:47;6.50;99.90
17172;DHT22;8701;50.150;8.756;2023-02-22T02:04:50;6.50;99.90
17172;DHT22;8701;50.150;8.756;2023-02-22T02:08:58;6.50;99.90
17172;DHT22;8701;50.150;8.756;2023-02-22T02:13:01;6.40;99.90
17172;DHT22;8701;50.150;8.756;2023-02-22T02:17:04;6.40;99.90
17172;DHT22;8701;50.150;8.756;2023-02-22T02:21:34;6.40;99.90
17172;DHT22;8701;50.150;8.756;2023-02-22T02:26:00;6.40;99.90
17172;DHT22;8701;50.150;8.756;2023-02-22T02:30:34;6.30;99.90
17172;DHT22;8701;50.150;8.756;2023-02-22T02:34:47;6.30;99.90
17172;DHT22;8701;50.150;8.756;2023-02-22T02:38:54;6.20;99.90
17172;DHT22;8701;50.150;8.756;2023-02-22T02:43:02;6.20;99.90
17172;DHT22;8701;50.150;8.756;2023-02-22T02:47:11;6.20;99.90
17172;DHT22;8701;50.150;8.756;2023-02-22T02:51:17;6.10;99.90
17172;DHT22;8701;50.150;8.756;2023-02-22T02:55:21;6.20;99.90
17172;DHT22;8701;50.150;8.756;2023-02-22T02:59:27;6.20;99.90
17172;DHT22;8701;50.150;8.756;2023-02-22T03:03:57;6.20;99.90
17172;DHT22;8701;50.150;8.756;2023-02-22T03:08:08;6.20;99.90
17172;DHT22;8701;50.150;8.756;2023-02-22T03:12:21;6.20;99.90
17172;DHT22;8701;50.150;8.756;2023-02-22T03:16:32;6.20;99.90
17172;DHT22;8701;50.150;8.756;2023-02-22T03:20:43;6.20;99.90
17172;DHT22;8701;50.150;8.756;2023-02-22T03:24:52;6.20;99.90
17172;DHT22;8701;50.150;8.756;2023-02-22T03:28:59;6.00;99.90
17172;DHT22;8701;50.150;8.756;2023-02-22T03:33:08;6.10;99.90
17172;DHT22;8701;50.150;8.756;2023-02-22T03:37:16;6.10;99.90
17172;DHT22;8701;50.150;8.756;2023-02-22T03:41:23;6.10;99.90
17172;DHT22;8701;50.150;8.756;2023-02-22T03:45:28;6.00;99.90
17172;DHT22;8701;50.150;8.756;2023-02-22T03:49:34;6.00;99.90
17172;DHT22;8701;50.150;8.756;2023-02-22T03:53:41;6.00;99.90
17172;DHT22;8701;50.150;8.756;2023-02-22T03:57:48;5.90;99.90
17172;DHT22;8701;50.150;8.756;2023-02-22T04:01:51;5.90;99.90
17172;DHT22;8701;50.150;8.756;2023-02-22T04:05:53;5.90;99.90
17172;DHT22;8701;50.150;8.756;2023-02-22T04:09:57;5.80;99.90
17172;DHT22;8701;50.150;8.756;2023-02-22T04:14:01;5.80;99.90
17172;DHT22;8701;50.150;8.756;2023-02-22T04:18:04;5.80;99.90
17172;DHT22;8701;50.150;8.756;2023-02-22T04:22:06;5.80;99.90
17172;DHT22;8701;50.150;8.756;2023-02-22T04:26:09;5.70;99.90
17172;DHT22;8701;50.150;8.756;2023-02-22T04:30:15;5.70;99.90
17172;DHT22;8701;50.150;8.756;2023-02-22T04:34:18;5.70;99.90
17172;DHT22;8701;50.150;8.756;2023-02-22T04:38:21;5.60;99.90
17172;DHT22;8701;50.150;8.756;2023-02-22T04:42:23;5.60;99.90
17172;DHT22;8701;50.150;8.756;2023-02-22T04:46:28;5.60;99.90
17172;DHT22;8701;50.150;8.756;2023-02-22T04:50:31;5.50;99.90
17172;DHT22;8701;50.150;8.756;2023-02-22T04:54:33;5.60;99.90
17172;DHT22;8701;50.150;8.756;2023-02-22T04:58:36;5.50;99.90
17172;DHT22;8701;50.150;8.756;2023-02-22T05:02:39;5.50;99.90
17172;DHT22;8701;50.150;8.756;2023-02-22T05:06:42;5.50;99.90
17172;DHT22;8701;50.150;8.756;2023-02-22T05:10:44;5.50;99.90
17172;DHT22;8701;50.150;8.756;2023-02-22T05:14:46;5.50;99.90
17172;DHT22;8701;50.150;8.756;2023-02-22T05:18:50;5.40;99.90
17172;DHT22;8701;50.150;8.756;2023-02-22T05:22:52;5.40;99.90
17172;DHT22;8701;50.150;8.756;2023-02-22T05:26:54;5.40;99.90
17172;DHT22;8701;50.150;8.756;2023-02-22T05:30:57;5.30;99.90
17172;DHT22;8701;50.150;8.756;2023-02-22T05:35:00;5.20;99.90
17172;DHT22;8701;50.150;8.756;2023-02-22T05:39:02;5.20;99.90
17172;DHT22;8701;50.150;8.756;2023-02-22T05:43:05;5.10;99.90
17172;DHT22;8701;50.150;8.756;2023-02-22T05:47:07;5.10;99.90
17172;DHT22;8701;50.150;8.756;2023-02-22T05:51:11;5.00;99.90
17172;DHT22;8701;50.150;8.756;2023-02-22T05:55:15;5.00;99.90
17172;DHT22;8701;50.150;8.756;2023-02-22T05:59:18;4.90;99.90
17172;DHT22;8701;50.150;8.756;2023-02-22T06:03:20;4.90;99.90
17172;DHT22;8701;50.150;8.756;2023-02-22T06:07:24;5.00;99.90
17172;DHT22;8701;50.150;8.756;2023-02-22T06:11:27;5.00;99.90
17172;DHT22;8701;50.150;8.756;2023-02-22T06:15:29;5.00;99.90
17172;DHT22;8701;50.150;8.756;2023-02-22T06:19:31;5.00;99.90
17172;DHT22;8701;50.150;8.756;2023-02-22T06:23:35;5.00;99.90
17172;DHT22;8701;50.150;8.756;2023-02-22T06:27:37;5.00;99.90
17172;DHT22;8701;50.150;8.756;2023-02-22T06:31:39;5.00;99.90
17172;DHT22;8701;50.150;8.756;2023-02-22T06:35:41;5.00;99.90
17172;DHT22;8701;50.150;8.756;2023-02-22T06:39:46;5.00;99.90
17172;DHT22;8701;50.150;8.756;2023-02-22T06:43:48;4.90;99.90
17172;DHT22;8701;50.150;8.756;2023-02-22T06:47:51;4.80;99.90
17172;DHT22;8701;50.150;8.756;2023-02-22T06:51:53;4.80;99.90
17172;DHT22;8701;50.150;8.756;2023-02-22T06:55:57;4.80;99.90
17172;DHT22;8701;50.150;8.756;2023-02-22T06:59:59;4.80;99.90
17172;DHT22;8701;50.150;8.756;2023-02-22T07:04:01;4.90;99.90
17172;DHT22;8701;50.150;8.756;2023-02-22T07:08:05;4.90;99.90
17172;DHT22;8701;50.150;8.756;2023-02-22T07:12:09;5.00;99.90
17172;DHT22;8701;50.150;8.756;2023-02-22T07:16:11;5.00;99.90
17172;DHT22;8701;50.150;8.756;2023-02-22T07:20:14;5.10;99.90
17172;DHT22;8701;50.150;8.756;2023-02-22T07:24:16;5.30;99.90
17172;DHT22;8701;50.150;8.756;2023-02-22T07:28:20;5.30;99.90
17172;DHT22;8701;50.150;8.756;2023-02-22T07:32:22;5.30;99.90
17172;DHT22;8701;50.150;8.756;2023-02-22T07:36:24;5.30;99.90
17172;DHT22;8701;50.150;8.756;2023-02-22T07:40:26;5.20;99.90
17172;DHT22;8701;50.150;8.756;2023-02-22T07:44:30;5.20;99.90
17172;DHT22;8701;50.150;8.756;2023-02-22T07:48:32;5.30;99.90
17172;DHT22;8701;50.150;8.756;2023-02-22T07:52:34;5.40;99.90
17172;DHT22;8701;50.150;8.756;2023-02-22T07:56:45;5.50;99.90
17172;DHT22;8701;50.150;8.756;2023-02-22T08:00:48;5.70;99.90
17172;DHT22;8701;50.150;8.756;2023-02-22T08:04:51;5.90;99.90
17172;DHT22;8701;50.150;8.756;2023-02-22T08:08:53;6.10;99.90
17172;DHT22;8701;50.150;8.756;2023-02-22T08:12:55;6.30;99.90
17172;DHT22;8701;50.150;8.756;2023-02-22T08:16:59;6.50;99.90
17172;DHT22;8701;50.150;8.756;2023-02-22T08:21:01;6.70;99.90
17172;DHT22;8701;50.150;8.756;2023-02-22T08:25:04;7.30;99.90
17172;DHT22;8701;50.150;8.756;2023-02-22T08:29:06;7.80;99.90
17172;DHT22;8701;50.150;8.756;2023-02-22T08:33:11;8.30;99.90
17172;DHT22;8701;50.150;8.756;2023-02-22T08:37:16;8.50;99.90
17172;DHT22;8701;50.150;8.756;2023-02-22T08:41:18;8.20;99.90
17172;DHT22;8701;50.150;8.756;2023-02-22T08:45:20;8.00;99.90
17172;DHT22;8701;50.150;8.756;2023-02-22T08:49:24;8.00;99.90
17172;DHT22;8701;50.150;8.756;2023-02-22T08:53:26;8.10;99.90
17172;DHT22;8701;50.150;8.756;2023-02-22T08:57:28;8.40;99.90
17172;DHT22;8701;50.150;8.756;2023-02-22T09:01:31;8.80;99.90
17172;DHT22;8701;50.150;8.756;2023-02-22T09:05:36;8.80;99.90
17172;DHT22;8701;50.150;8.756;2023-02-22T09:09:38;8.90;99.90
17172;DHT22;8701;50.150;8.756;2023-02-22T09:13:40;9.20;99.90
17172;DHT22;8701;50.150;8.756;2023-02-22T09:17:43;9.20;99.90
17172;DHT22;8701;50.150;8.756;2023-02-22T09:21:52;9.10;99.90
17172;DHT22;8701;50.150;8.756;2023-02-22T09:25:55;8.80;99.90
17172;DHT22;8701;50.150;8.756;2023-02-22T09:29:57;8.80;99.90
17172;DHT22;8701;50.150;8.756;2023-02-22T09:33:59;8.90;99.90
17172;DHT22;8701;50.150;8.756;2023-02-22T09:38:04;9.00;99.90
17172;DHT22;8701;50.150;8.756;2023-02-22T09:42:11;8.90;99.90
17172;DHT22;8701;50.150;8.756;2023-02-22T09:46:21;8.80;99.90
17172;DHT22;8701;50.150;8.756;2023-02-22T09:50:29;8.90;99.90
17172;DHT22;8701;50.150;8.756;2023-02-22T09:54:38;8.90;99.90
17172;DHT22;8701;50.150;8.756;2023-02-22T09:58:45;8.90;99.90
17172;DHT22;8701;50.150;8.756;2023-02-22T10:02:51;9.00;99.90
17172;DHT22;8701;50.150;8.756;2023-02-22T10:07:04;8.90;99.90
17172;DHT22;8701;50.150;8.756;2023-02-22T10:11:22;8.90;99.90
17172;DHT22;8701;50.150;8.756;2023-02-22T10:15:35;8.80;99.90
17172;DHT22;8701;50.150;8.756;2023-02-22T10:19:48;9.00;99.90
17172;DHT22;8701;50.150;8.756;2023-02-22T10:24:03;9.30;99.90
17172;DHT22;8701;50.150;8.756;2023-02-22T10:28:14;9.10;99.90
17172;DHT22;8701;50.150;8.756;2023-02-22T10:32:22;9.10;99.90
17172;DHT22;8701;50.150;8.756;2023-02-22T10:36:27;9.30;99.90
17172;DHT22;8701;50.150;8.756;2023-02-22T10:40:29;9.60;99.90
17172;DHT22;8701;50.150;8.756;2023-02-22T10:44:37;9.60;99.90
17172;DHT22;8701;50.150;8.756;2023-02-22T10:48:41;9.40;99.90
17172;DHT22;8701;50.150;8.756;2023-02-22T10:52:47;9.40;99.90
17172;DHT22;8701;50.150;8.756;2023-02-22T10:56:51;9.40;99.90
17172;DHT22;8701;50.150;8.756;2023-02-22T11:00:56;9.50;99.90
17172;DHT22;8701;50.150;8.756;2023-02-22T11:05:00;10.00;99.90
17172;DHT22;8701;50.150;8.756;2023-02-22T11:09:05;10.50;99.90
17172;DHT22;8701;50.150;8.756;2023-02-22T11:13:17;10.80;99.90
17172;DHT22;8701;50.150;8.756;2023-02-22T11:17:28;11.20;99.90
17172;DHT22;8701;50.150;8.756;2023-02-22T11:21:31;11.40;99.90
17172;DHT22;8701;50.150;8.756;2023-02-22T11:25:35;11.60;99.90
17172;DHT22;8701;50.150;8.756;2023-02-22T11:29:38;12.00;99.90
17172;DHT22;8701;50.150;8.756;2023-02-22T11:33:48;12.40;99.90
17172;DHT22;8701;50.150;8.756;2023-02-22T11:37:52;13.00;99.90
17172;DHT22;8701;50.150;8.756;2023-02-22T11:41:55;13.50;99.90
17172;DHT22;8701;50.150;8.756;2023-02-22T11:46:01;14.10;99.90
17172;DHT22;8701;50.150;8.756;2023-02-22T11:50:10;14.60;99.90
17172;DHT22;8701;50.150;8.756;2023-02-22T11:54:37;14.70;99.90
17172;DHT22;8701;50.150;8.756;2023-02-22T11:58:44;14.90;99.90
17172;DHT22;8701;50.150;8.756;2023-02-22T12:03:07;15.10;99.90
17172;DHT22;8701;50.150;8.756;2023-02-22T12:07:30;15.60;99.90
17172;DHT22;8701;50.150;8.756;2023-02-22T12:11:43;15.70;99.90
17172;DHT22;8701;50.150;8.756;2023-02-22T12:15:54;16.20;99.90
17172;DHT22;8701;50.150;8.756;2023-02-22T12:20:03;16.60;99.90
17172;DHT22;8701;50.150;8.756;2023-02-22T12:24:14;16.80;99.90
17172;DHT22;8701;50.150;8.756;2023-02-22T12:28:21;17.10;99.90
17172;DHT22;8701;50.150;8.756;2023-02-22T12:32:31;17.30;99.90
17172;DHT22;8701;50.150;8.756;2023-02-22T12:36:39;17.60;99.90
17172;DHT22;8701;50.150;8.756;2023-02-22T12:40:50;17.60;99.90
17172;DHT22;8701;50.150;8.756;2023-02-22T12:44:57;17.60;99.90
17172;DHT22;8701;50.150;8.756;2023-02-22T12:49:09;17.80;99.90
17172;DHT22;8701;50.150;8.756;2023-02-22T12:53:19;17.80;99.90
17172;DHT22;8701;50.150;8.756;2023-02-22T12:57:33;18.00;99.90
17172;DHT22;8701;50.150;8.756;2023-02-22T13:01:38;17.80;99.90
17172;DHT22;8701;50.150;8.756;2023-02-22T13:05:41;17.50;99.90
17172;DHT22;8701;50.150;8.756;2023-02-22T13:10:00;17.80;99.90
17172;DHT22;8701;50.150;8.756;2023-02-22T13:14:15;18.10;99.90
17172;DHT22;8701;50.150;8.756;2023-02-22T13:18:27;18.50;99.90
17172;DHT22;8701;50.150;8.756;2023-02-22T13:22:36;19.30;99.90
17172;DHT22;8701;50.150;8.756;2023-02-22T13:26:46;20.10;99.90
17172;DHT22;8701;50.150;8.756;2023-02-22T13:31:02;20.80;99.90
17172;DHT22;8701;50.150;8.756;2023-02-22T13:35:25;21.30;99.90
17172;DHT22;8701;50.150;8.756;2023-02-22T13:39:40;21.50;99.90
17172;DHT22;8701;50.150;8.756;2023-02-22T13:44:12;21.80;99.90
17172;DHT22;8701;50.150;8.756;2023-02-22T13:48:26;21.70;99.90
17172;DHT22;8701;50.150;8.756;2023-02-22T13:52:37;21.40;99.90
17172;DHT22;8701;50.150;8.756;2023-02-22T13:56:41;21.50;99.90
17172;DHT22;8701;50.150;8.756;2023-02-22T14:00:46;21.40;99.90
17172;DHT22;8701;50.150;8.756;2023-02-22T14:04:50;21.00;99.80
17172;DHT22;8701;50.150;8.756;2023-02-22T14:08:52;20.80;98.80
17172;DHT22;8701;50.150;8.756;2023-02-22T14:13:03;20.40;99.80
17172;DHT22;8701;50.150;8.756;2023-02-22T14:17:26;20.40;99.90
17172;DHT22;8701;50.150;8.756;2023-02-22T14:21:32;20.10;99.90
17172;DHT22;8701;50.150;8.756;2023-02-22T14:25:38;19.70;99.90
17172;DHT22;8701;50.150;8.756;2023-02-22T14:29:49;19.50;99.90
17172;DHT22;8701;50.150;8.756;2023-02-22T14:34:08;19.40;99.90
17172;DHT22;8701;50.150;8.756;2023-02-22T14:38:16;19.30;99.90
17172;DHT22;8701;50.150;8.756;2023-02-22T14:42:23;18.70;99.90
17172;DHT22;8701;50.150;8.756;2023-02-22T14:46:28;18.30;99.90
17172;DHT22;8701;50.150;8.756;2023-02-22T14:50:41;18.10;99.90
17172;DHT22;8701;50.150;8.756;2023-02-22T14:55:02;17.90;99.90
17172;DHT22;8701;50.150;8.756;2023-02-22T14:59:14;17.80;99.90
17172;DHT22;8701;50.150;8.756;2023-02-22T15:03:25;17.70;99.90
17172;DHT22;8701;50.150;8.756;2023-02-22T15:07:30;17.40;99.90
17172;DHT22;8701;50.150;8.756;2023-02-22T15:11:37;16.90;99.90
17172;DHT22;8701;50.150;8.756;2023-02-22T15:15:40;16.50;99.90
17172;DHT22;8701;50.150;8.756;2023-02-22T15:19:46;16.40;99.90
17172;DHT22;8701;50.150;8.756;2023-02-22T15:23:51;16.30;99.90
17172;DHT22;8701;50.150;8.756;2023-02-22T15:27:59;16.20;99.90
17172;DHT22;8701;50.150;8.756;2023-02-22T15:32:17;16.20;99.90
17172;DHT22;8701;50.150;8.756;2023-02-22T15:36:24;16.10;99.90
17172;DHT22;8701;50.150;8.756;2023-02-22T15:40:27;16.00;99.90
17172;DHT22;8701;50.150;8.756;2023-02-22T15:44:39;15.80;99.90
17172;DHT22;8701;50.150;8.756;2023-02-22T15:48:41;15.60;99.90
17172;DHT22;8701;50.150;8.756;2023-02-22T15:52:48;15.60;99.90
17172;DHT22;8701;50.150;8.756;2023-02-22T15:56:53;15.40;99.90
17172;DHT22;8701;50.150;8.756;2023-02-22T16:01:02;15.30;99.90
17172;DHT22;8701;50.150;8.756;2023-02-22T16:05:08;15.10;99.90
17172;DHT22;8701;50.150;8.756;2023-02-22T16:09:13;14.90;99.90
17172;DHT22;8701;50.150;8.756;2023-02-22T16:13:21;14.70;99.90
17172;DHT22;8701;50.150;8.756;2023-02-22T16:17:33;14.60;99.90
17172;DHT22;8701;50.150;8.756;2023-02-22T16:21:49;14.40;99.90
17172;DHT22;8701;50.150;8.756;2023-02-22T16:26:06;14.30;99.90
17172;DHT22;8701;50.150;8.756;2023-02-22T16:30:21;14.20;99.90
17172;DHT22;8701;50.150;8.756;2023-02-22T16:34:28;14.10;99.90
17172;DHT22;8701;50.150;8.756;2023-02-22T16:38:31;14.00;99.90
17172;DHT22;8701;50.150;8.756;2023-02-22T16:42:38;13.80;99.90
17172;DHT22;8701;50.150;8.756;2023-02-22T16:46:40;13.60;99.90
17172;DHT22;8701;50.150;8.756;2023-02-22T16:50:44;13.40;99.90
17172;DHT22;8701;50.150;8.756;2023-02-22T16:54:50;13.40;99.90
17172;DHT22;8701;50.150;8.756;2023-02-22T16:58:53;13.20;99.90
17172;DHT22;8701;50.150;8.756;2023-02-22T17:03:03;13.20;99.90
17172;DHT22;8701;50.150;8.756;2023-02-22T17:07:07;13.10;99.90
17172;DHT22;8701;50.150;8.756;2023-02-22T17:11:11;13.10;99.90
17172;DHT22;8701;50.150;8.756;2023-02-22T17:15:27;13.00;99.90
17172;DHT22;8701;50.150;8.756;2023-02-22T17:19:30;12.90;99.90
17172;DHT22;8701;50.150;8.756;2023-02-22T17:23:33;12.90;99.90
17172;DHT22;8701;50.150;8.756;2023-02-22T17:27:35;12.80;99.90
17172;DHT22;8701;50.150;8.756;2023-02-22T17:31:38;12.60;99.90
17172;DHT22;8701;50.150;8.756;2023-02-22T17:35:40;12.70;99.90
17172;DHT22;8701;50.150;8.756;2023-02-22T17:39:44;12.60;99.90
17172;DHT22;8701;50.150;8.756;2023-02-22T17:43:48;12.50;99.90
17172;DHT22;8701;50.150;8.756;2023-02-22T17:47:51;12.50;99.90
17172;DHT22;8701;50.150;8.756;2023-02-22T17:51:54;12.40;99.90
17172;DHT22;8701;50.150;8.756;2023-02-22T17:56:04;12.30;99.90
17172;DHT22;8701;50.150;8.756;2023-02-22T18:00:07;12.20;99.90
17172;DHT22;8701;50.150;8.756;2023-02-22T18:04:14;12.20;99.90
17172;DHT22;8701;50.150;8.756;2023-02-22T18:08:16;12.10;99.90
17172;DHT22;8701;50.150;8.756;2023-02-22T18:12:21;12.10;99.90
17172;DHT22;8701;50.150;8.756;2023-02-22T18:16:24;11.90;99.90
17172;DHT22;8701;50.150;8.756;2023-02-22T18:20:26;11.90;99.90
17172;DHT22;8701;50.150;8.756;2023-02-22T18:24:38;11.90;99.90
17172;DHT22;8701;50.150;8.756;2023-02-22T18:28:43;11.80;99.90
17172;DHT22;8701;50.150;8.756;2023-02-22T18:32:45;11.70;99.90
17172;DHT22;8701;50.150;8.756;2023-02-22T18:36:48;11.60;99.90
17172;DHT22;8701;50.150;8.756;2023-02-22T18:40:57;11.70;99.90
17172;DHT22;8701;50.150;8.756;2023-02-22T18:45:01;11.70;99.90
17172;DHT22;8701;50.150;8.756;2023-02-22T18:51:49;11.60;99.90
17172;DHT22;8701;50.150;8.756;2023-02-22T18:54:16;11.50;99.90
17172;DHT22;8701;50.150;8.756;2023-02-22T18:58:19;11.80;99.90
17172;DHT22;8701;50.150;8.756;2023-02-22T19:02:26;11.50;99.90
17172;DHT22;8701;50.150;8.756;2023-02-22T19:06:31;11.40;99.90
17172;DHT22;8701;50.150;8.756;2023-02-22T19:10:35;11.40;99.90
17172;DHT22;8701;50.150;8.756;2023-02-22T19:14:37;11.40;99.90
17172;DHT22;8701;50.150;8.756;2023-02-22T19:18:44;11.30;99.90
17172;DHT22;8701;50.150;8.756;2023-02-22T19:22:46;11.20;99.90
17172;DHT22;8701;50.150;8.756;2023-02-22T19:26:50;11.20;99.90
17172;DHT22;8701;50.150;8.756;2023-02-22T19:31:13;11.10;99.90
17172;DHT22;8701;50.150;8.756;2023-02-22T19:35:17;11.10;99.90
17172;DHT22;8701;50.150;8.756;2023-02-22T19:39:27;11.00;99.90
17172;DHT22;8701;50.150;8.756;2023-02-22T19:43:30;10.90;99.90
17172;DHT22;8701;50.150;8.756;2023-02-22T19:47:32;10.90;99.90
17172;DHT22;8701;50.150;8.756;2023-02-22T19:51:37;10.90;99.90
17172;DHT22;8701;50.150;8.756;2023-02-22T19:55:39;10.70;99.90
17172;DHT22;8701;50.150;8.756;2023-02-22T19:59:42;10.90;99.90
17172;DHT22;8701;50.150;8.756;2023-02-22T20:03:44;10.90;99.90
17172;DHT22;8701;50.150;8.756;2023-02-22T20:07:48;10.50;99.90
17172;DHT22;8701;50.150;8.756;2023-02-22T20:11:51;10.50;99.90
17172;DHT22;8701;50.150;8.756;2023-02-22T20:15:54;10.50;99.90
17172;DHT22;8701;50.150;8.756;2023-02-22T20:19:57;10.40;99.90
17172;DHT22;8701;50.150;8.756;2023-02-22T20:24:03;10.30;99.90
17172;DHT22;8701;50.150;8.756;2023-02-22T20:28:06;10.50;99.90
17172;DHT22;8701;50.150;8.756;2023-02-22T20:32:11;10.30;99.90
17172;DHT22;8701;50.150;8.756;2023-02-22T20:36:17;10.20;99.90
17172;DHT22;8701;50.150;8.756;2023-02-22T20:40:31;10.20;99.90
17172;DHT22;8701;50.150;8.756;2023-02-22T20:44:36;10.20;99.90
17172;DHT22;8701;50.150;8.756;2023-02-22T20:48:40;10.20;99.90
17172;DHT22;8701;50.150;8.756;2023-02-22T20:52:44;10.20;99.90
17172;DHT22;8701;50.150;8.756;2023-02-22T20:56:49;10.30;99.90
17172;DHT22;8701;50.150;8.756;2023-02-22T21:01:03;10.10;99.90
17172;DHT22;8701;50.150;8.756;2023-02-22T21:05:07;10.10;99.90
17172;DHT22;8701;50.150;8.756;2023-02-22T21:09:15;10.10;99.90
17172;DHT22;8701;50.150;8.756;2023-02-22T21:13:24;10.10;99.90
17172;DHT22;8701;50.150;8.756;2023-02-22T21:17:30;10.10;99.90
17172;DHT22;8701;50.150;8.756;2023-02-22T21:21:34;10.00;99.90
17172;DHT22;8701;50.150;8.756;2023-02-22T21:25:37;10.00;99.90
17172;DHT22;8701;50.150;8.756;2023-02-22T21:29:48;9.90;99.90
17172;DHT22;8701;50.150;8.756;2023-02-22T21:33:53;9.90;99.90
17172;DHT22;8701;50.150;8.756;2023-02-22T21:37:56;9.80;99.90
17172;DHT22;8701;50.150;8.756;2023-02-22T21:41:59;9.80;99.90
17172;DHT22;8701;50.150;8.756;2023-02-22T21:46:04;9.80;99.90
17172;DHT22;8701;50.150;8.756;2023-02-22T21:50:10;9.80;99.90
17172;DHT22;8701;50.150;8.756;2023-02-22T21:54:19;9.90;99.90
17172;DHT22;8701;50.150;8.756;2023-02-22T21:58:27;9.80;99.90
17172;DHT22;8701;50.150;8.756;2023-02-22T22:03:16;9.90;99.90
17172;DHT22;8701;50.150;8.756;2023-02-22T22:13:11;9.90;99.90
17172;DHT22;8701;50.150;8.756;2023-02-22T22:23:22;9.50;99.90
17172;DHT22;8701;50.150;8.756;2023-02-22T22:27:26;9.70;99.90
17172;DHT22;8701;50.150;8.756;2023-02-22T22:32:18;9.70;99.90
17172;DHT22;8701;50.150;8.756;2023-02-22T22:36:36;9.70;99.90
17172;DHT22;8701;50.150;8.756;2023-02-22T22:40:41;9.60;99.90
17172;DHT22;8701;50.150;8.756;2023-02-22T22:55:38;9.70;99.90
17172;DHT22;8701;50.150;8.756;2023-02-22T23:00:20;9.80;99.90
17172;DHT22;8701;50.150;8.756;2023-02-22T23:04:30;9.80;99.90
17172;DHT22;8701;50.150;8.756;2023-02-22T23:08:34;9.80;99.90
17172;DHT22;8701;50.150;8.756;2023-02-22T23:18:09;9.80;99.90
17172;DHT22;8701;50.150;8.756;2023-02-22T23:22:12;9.80;99.90
17172;DHT22;8701;50.150;8.756;2023-02-22T23:26:16;9.80;99.90
17172;DHT22;8701;50.150;8.756;2023-02-22T23:30:25;9.90;99.90
17172;DHT22;8701;50.150;8.756;2023-02-22T23:34:32;9.80;99.90
17172;DHT22;8701;50.150;8.756;2023-02-22T23:38:43;9.90;99.90
17172;DHT22;8701;50.150;8.756;2023-02-22T23:42:46;9.90;99.90
17172;DHT22;8701;50.150;8.756;2023-02-22T23:46:49;9.90;99.90
17172;DHT22;8701;50.150;8.756;2023-02-22T23:50:56;9.90;99.90
17172;DHT22;8701;50.150;8.756;2023-02-22T23:55:00;9.80;99.90
17172;DHT22;8701;50.150;8.756;2023-02-22T23:59:12;9.80;99.90
